Chadstone Weather > Observations for 18/03/21

Select Day:



Observations
Time Temp Hum DP Wind Gust Dir Rain >9am Press
C % C kph kph mm hPa
00:00 18.7 73 13.8 0.2 5.0 SE 0.0 1008.1
00:10 18.6 74 13.9 0.0 2.5 SE 0.0 1009.1
00:20 18.4 74 13.7 0.0 0.0 N 0.0 1008.0
00:30 18.2 75 13.7 0.0 0.0 N 0.0 1008.7
00:40 17.9 74 13.2 0.0 0.0 N 0.0 1007.6
00:50 17.8 75 13.3 0.0 0.0 N 0.0 1008.4
01:00 17.7 76 13.4 0.0 0.0 N 0.0 1008.2
01:10 17.5 76 13.2 0.0 0.0 N 0.0 1008.1
01:20 17.2 77 13.1 0.0 0.0 N 0.0 1008.3
01:30 17.0 77 12.9 0.0 0.0 N 0.0 1007.9
01:40 16.9 79 13.2 0.0 0.0 N 0.0 1008.2
01:50 16.8 80 13.3 0.0 0.0 N 0.0 1007.8
02:00 16.7 81 13.4 0.0 0.0 N 0.0 1007.9
02:10 16.6 81 13.3 0.0 0.0 N 0.0 1007.8
02:20 16.5 82 13.4 0.0 0.0 N 0.0 1008.0
02:30 16.3 82 13.2 0.0 0.0 N 0.0 1007.9
02:40 16.1 82 13.0 0.0 0.0 N 0.0 1007.8
02:50 16.0 83 13.1 0.0 0.0 N 0.0 1007.5
03:00 16.0 83 13.1 0.0 0.0 N 0.0 1007.5
03:10 16.0 83 13.1 0.0 0.0 N 0.0 1007.7
03:20 15.8 84 13.1 0.0 0.0 N 0.0 1007.2
03:30 15.8 85 13.3 0.0 0.0 N 0.0 1007.8
03:40 15.6 85 13.1 0.0 0.0 N 0.0 1007.4
03:50 15.6 85 13.1 0.0 0.0 N 0.0 1007.6
04:00 15.6 85 13.1 0.0 2.5 NNE 0.0 1007.4
04:10 15.7 86 13.4 0.3 3.6 ENE 0.0 1007.5
04:20 15.8 86 13.5 0.9 3.6 NE 0.0 1007.6
04:30 16.0 85 13.5 0.4 3.6 NE 0.0 1007.2
04:40 16.0 85 13.5 0.4 3.6 NE 0.0 1007.7
04:50 16.0 85 13.5 1.3 5.0 NE 0.0 1007.2
05:00 16.1 85 13.6 0.4 5.0 NE 0.0 1007.8
05:10 16.1 85 13.6 0.7 3.6 NE 0.0 1007.3
05:20 16.0 85 13.5 0.2 3.6 NE 0.0 1007.4
05:30 15.9 86 13.6 0.0 1.1 NE 0.0 1007.7
05:40 15.9 86 13.6 0.2 5.0 NE 0.0 1007.3
05:50 15.9 86 13.6 0.0 2.5 NE 0.0 1007.4
06:00 15.7 86 13.4 0.0 0.0 N 0.0 1007.4
06:10 15.5 86 13.2 0.0 1.1 NE 0.0 1007.6
06:20 15.4 86 13.1 0.0 0.0 N 0.0 1007.7
06:30 15.3 86 13.0 0.0 0.0 N 0.0 1007.8
06:40 15.2 87 13.1 0.0 0.0 N 0.0 1008.0
06:50 15.2 87 13.1 0.0 0.0 N 0.0 1008.2
07:00 15.1 88 13.1 0.0 0.0 N 0.0 1008.2
07:10 15.1 88 13.1 0.0 0.0 N 0.0 1008.2
07:20 15.0 88 13.0 0.0 0.0 N 0.0 1008.3
07:30 14.9 89 13.1 0.0 0.0 N 0.0 1008.4
07:40 14.9 90 13.3 0.0 0.0 N 0.0 1008.6
07:50 14.9 90 13.3 0.0 0.0 N 0.0 1008.6
08:00 15.1 89 13.3 0.0 0.0 N 0.0 1008.9
08:10 15.3 90 13.7 0.0 2.5 NE 0.0 1009.1
08:20 15.6 90 14.0 0.0 2.5 NE 0.0 1009.1
08:30 15.8 90 14.2 0.0 0.0 N 0.0 1009.4
08:40 16.0 89 14.2 0.0 0.0 N 0.0 1009.4
08:50 16.2 89 14.4 0.0 0.0 N 0.0 1009.5
09:00 16.6 89 14.8 0.0 0.0 N 0.0 1009.6
09:10 17.0 87 14.8 0.0 2.5 NE 0.0 1009.8
09:20 17.3 86 14.9 1.2 5.0 NE 0.0 1009.8
09:30 17.7 85 15.2 0.8 5.0 NE 0.0 1009.9
09:40 18.1 86 15.7 0.6 5.0 NE 0.0 1009.9
09:50 18.4 85 15.8 0.1 3.6 NE 0.0 1009.9
10:00 18.6 85 16.0 1.5 3.6 NE 0.0 1009.9
10:10 18.8 85 16.2 0.5 3.6 NE 0.0 1009.9
10:20 18.8 85 16.2 1.2 6.1 NE 0.0 1009.9
10:30 18.9 84 16.1 0.7 5.0 NE 0.0 1009.8
10:40 19.0 83 16.1 0.4 3.6 NE 0.0 1009.8
10:50 19.2 82 16.1 0.7 3.6 NE 0.0 1009.7
11:00 19.5 81 16.2 0.0 2.5 NE 0.0 1009.6
11:10 19.7 80 16.2 1.1 3.6 NNE 0.0 1009.5
11:20 19.9 79 16.2 0.1 5.0 NNE 0.0 1009.4
11:30 20.2 77 16.1 0.0 1.1 NNE 0.0 1009.3
11:40 20.5 76 16.1 0.1 5.0 N 0.0 1009.3
11:50 20.7 75 16.1 0.7 3.6 NW 0.0 1009.3
12:00 21.0 74 16.2 0.1 2.5 NW 0.0 1009.2
12:10 21.3 73 16.3 0.0 3.6 S 0.0 1009.0
12:20 21.8 72 16.5 0.7 5.0 S 0.0 1008.9
12:30 22.0 69 16.1 0.7 3.6 SSE 0.0 1008.9
12:40 22.3 69 16.4 0.8 6.1 WNW 0.0 1008.7
12:50 22.8 67 16.4 1.0 5.0 SSE 0.0 1008.6
13:00 23.3 66 16.6 1.6 7.2 NE 0.0 1008.4
13:10 23.7 64 16.5 2.5 8.6 SSE 0.0 1008.4
13:20 24.0 60 15.8 2.4 8.6 SE 0.0 1008.3
13:30 24.1 57 15.1 1.9 11.2 SE 0.0 1008.2
13:40 24.4 56 15.1 2.1 9.7 SE 0.0 1008.1
13:50 24.8 55 15.2 2.3 12.2 S 0.0 1008.1
14:00 25.0 52 14.5 1.2 12.2 SE 0.0 1008.2
14:10 25.4 53 15.1 1.7 12.2 ESE 0.0 1008.2
14:20 25.6 50 14.4 3.0 11.2 SSE 0.0 1008.0
14:30 25.8 51 14.9 4.2 12.2 S 0.0 1007.8
14:40 25.7 48 13.9 5.0 17.3 SE 0.0 1007.7
14:50 25.6 48 13.8 3.3 12.2 SSE 0.0 1007.7
15:00 25.8 47 13.7 4.4 12.2 S 0.0 1007.5
15:10 26.0 46 13.5 1.3 8.6 SW 0.0 1007.3
15:20 25.8 46 13.3 2.4 12.2 SSW 0.0 1008.1
15:30 25.7 48 13.9 2.0 15.8 S 0.0 1008.4
15:40 25.8 48 14.0 2.3 13.3 S 0.0 1008.3
15:50 25.9 50 14.7 3.3 15.8 S 0.0 1008.3
16:00 26.1 49 14.6 5.4 15.8 SE 0.0 1008.1
16:10 26.1 48 14.3 2.5 14.8 SSW 0.0 1008.1
16:20 26.2 49 14.7 2.2 17.3 S 0.0 1008.1
16:30 26.2 47 14.0 5.8 17.3 SSW 0.0 1008.1
16:40 26.1 49 14.6 1.6 11.2 SSE 0.0 1008.2
16:50 25.9 52 15.3 3.5 13.3 SSW 0.0 1008.2
17:00 25.5 53 15.2 1.6 8.6 WSW 0.0 1008.2
17:10 25.6 53 15.3 2.7 14.8 S 0.0 1007.9
17:20 25.6 53 15.3 1.6 7.2 S 0.0 1008.1
17:30 25.4 53 15.1 2.8 17.3 S 0.0 1008.0
17:40 25.2 53 15.0 1.5 11.2 W 0.0 1007.8
17:50 25.1 55 15.4 4.1 13.3 S 0.0 1007.6
18:00 24.9 56 15.5 0.2 6.1 SSW 0.0 1007.7
18:10 24.9 56 15.5 0.0 5.0 SSW 0.0 1007.7
18:20 24.9 57 15.8 0.3 5.0 WSW 0.0 1007.5
18:24 24.8 57 15.7 0.2 3.6 SSW 0.0 1012.1
18:54 23.6 63 16.1 0.0 0.0 N 0.0 1011.9
19:24 23.2 66 16.5 0.0 1.1 SE 0.0 1012.1
19:54 23.2 58 14.5 3.6 6.1 SE 0.0 1012.3
20:24 23.0 60 14.8 3.6 6.1 SE 0.0 1012.4
20:54 22.7 62 15.0 5.0 7.2 SE 0.0 1013.1
21:24 22.2 64 15.1 5.0 6.1 NE 0.0 1014.0
21:54 21.5 68 15.3 2.5 5.0 S 0.0 1013.6
22:24 21.0 70 15.3 6.1 9.7 SSE 0.0 1013.5
22:54 20.5 73 15.5 0.0 2.5 S 0.0 1013.6
23:24 20.0 74 15.2 5.0 7.2 S 0.0 1012.8
23:54 19.5 76 15.2 2.5 5.0 E 0.0 1013.1